Time;durP1;ratioP1;P1;durP2;ratioP2;P2;SDS_P1;SDS_P2;PMS_P1;PMS_P2;Temp;Humidity;BMP_temperature;BMP_pressure;BME280_temperature;BME280_humidity;BME280_pressure;Samples;Min_cycle;Max_cycle;Signal;HPM_P1;HPM_P2
2023/04/09 00:01:19;;;;;;;9.48;7.63;;;;;;;10.69;100.00;100768.59;6195903;23;20005;-90
2023/04/09 00:03:50;;;;;;;11.27;8.20;;;;;;;10.40;100.00;100773.38;6196095;23;20009;-92
2023/04/09 00:06:16;;;;;;;10.48;7.63;;;;;;;10.48;100.00;100769.91;6221748;23;20142;-91
2023/04/09 00:08:41;;;;;;;12.90;8.52;;;;;;;10.33;100.00;100780.25;6195081;23;20017;-91
2023/04/09 00:11:07;;;;;;;13.90;8.32;;;;;;;10.49;100.00;100777.72;6219741;23;20072;-90
2023/04/09 00:13:32;;;;;;;13.18;8.20;;;;;;;10.35;100.00;100778.28;6219844;23;20008;-91
2023/04/09 00:15:58;;;;;;;12.75;7.85;;;;;;;10.40;100.00;100773.38;6219260;23;20008;-90
2023/04/09 00:18:24;;;;;;;15.73;8.27;;;;;;;10.28;100.00;100778.06;6218849;23;20151;-91
2023/04/09 00:20:49;;;;;;;14.25;9.05;;;;;;;10.09;100.00;100769.44;6166496;23;20013;-89
2023/04/09 00:23:15;;;;;;;12.88;9.25;;;;;;;10.16;100.00;100774.00;6218397;23;20028;-90
2023/04/09 00:25:40;;;;;;;11.05;8.10;;;;;;;10.19;100.00;100771.03;6219659;23;20111;-90
2023/04/09 00:28:07;;;;;;;15.05;8.57;;;;;;;10.25;100.00;100773.06;6192968;23;20070;-90
2023/04/09 00:30:33;;;;;;;12.40;8.75;;;;;;;10.16;100.00;100779.31;6220167;23;20009;-90
2023/04/09 00:33:01;;;;;;;12.25;8.60;;;;;;;10.32;100.00;100775.94;6219251;23;20036;-90
2023/04/09 00:35:27;;;;;;;13.43;8.98;;;;;;;10.18;100.00;100781.78;6197779;23;20012;-92
2023/04/09 00:37:56;;;;;;;17.13;9.90;;;;;;;10.03;100.00;100772.69;6196191;23;20394;-93
2023/04/09 00:40:21;;;;;;;13.65;10.20;;;;;;;9.90;100.00;100773.09;6223526;23;20012;-91
2023/04/09 00:42:47;;;;;;;17.40;8.98;;;;;;;9.99;100.00;100777.47;6195348;23;20446;-91
2023/04/09 00:45:12;;;;;;;15.60;9.15;;;;;;;10.01;100.00;100780.78;6217159;23;20336;-89
2023/04/09 00:47:44;;;;;;;13.68;9.70;;;;;;;10.03;100.00;100775.34;6217361;23;20044;-88
2023/04/09 00:50:10;;;;;;;15.18;9.85;;;;;;;10.05;100.00;100781.31;6190719;23;20290;-89
2023/04/09 00:52:36;;;;;;;14.93;9.95;;;;;;;9.99;100.00;100782.75;6190685;23;20013;-88
2023/04/09 00:55:04;;;;;;;14.10;9.35;;;;;;;10.10;100.00;100784.34;6189627;23;20428;-89
2023/04/09 00:57:29;;;;;;;13.30;9.43;;;;;;;10.13;100.00;100781.38;6165056;23;20013;-88
2023/04/09 00:59:55;;;;;;;12.85;9.27;;;;;;;10.31;100.00;100787.50;6216581;23;20344;-87
2023/04/09 01:02:21;;;;;;;13.02;9.43;;;;;;;10.41;100.00;100782.94;6216782;23;20012;-90
2023/04/09 01:04:47;;;;;;;15.20;10.23;;;;;;;10.38;100.00;100788.56;6190145;23;20008;-89
2023/04/09 01:07:30;;;;;;;15.05;9.60;;;;;;;10.20;100.00;100785.13;6192775;23;20032;-89
2023/04/09 01:10:08;;;;;;;12.13;9.50;;;;;;;10.06;100.00;100778.53;6190377;23;20099;-88
2023/04/09 01:12:47;;;;;;;14.52;9.65;;;;;;;10.22;100.00;100788.44;6190056;23;20496;-86
2023/04/09 01:15:17;;;;;;;15.35;10.63;;;;;;;10.24;100.00;100778.53;6215948;23;20012;-90
2023/04/09 01:17:51;;;;;;;13.30;9.57;;;;;;;10.24;100.00;100781.19;6165154;23;20013;-88
2023/04/09 01:20:33;;;;;;;19.48;11.00;;;;;;;10.25;100.00;100788.13;6189940;23;20024;-90
2023/04/09 01:23:14;;;;;;;12.27;7.63;;;;;;;10.23;100.00;100782.16;6190283;23;20325;-88
2023/04/09 01:26:00;;;;;;;15.43;11.15;;;;;;;9.74;100.00;100773.75;6165212;23;20017;-90
2023/04/09 01:28:41;;;;;;;15.88;10.00;;;;;;;9.72;100.00;100777.53;6193043;23;20393;-89
2023/04/09 01:31:12;;;;;;;22.58;11.38;;;;;;;9.93;100.00;100777.22;6216871;23;20084;-91
2023/04/09 01:33:43;;;;;;;14.77;10.93;;;;;;;9.82;100.00;100770.34;6215771;23;20008;-88
2023/04/09 01:36:09;;;;;;;14.13;10.55;;;;;;;9.75;100.00;100779.88;6190775;23;20012;-89
2023/04/09 01:38:36;;;;;;;15.07;11.05;;;;;;;9.62;100.00;100784.69;6219055;23;20008;-87
2023/04/09 01:41:03;;;;;;;14.90;11.48;;;;;;;9.39;100.00;100789.56;6192004;23;20005;-88
2023/04/09 01:43:31;;;;;;;14.70;10.88;;;;;;;9.60;100.00;100787.50;6190346;23;20375;-88
2023/04/09 01:45:59;;;;;;;15.85;11.88;;;;;;;9.82;100.00;100786.22;6190444;23;20015;-87
2023/04/09 01:48:26;;;;;;;15.40;11.35;;;;;;;9.68;100.00;100789.38;6228039;23;20016;-88
2023/04/09 01:50:52;;;;;;;19.05;11.65;;;;;;;9.45;100.00;100794.28;6217532;23;20026;-88
2023/04/09 01:53:18;;;;;;;17.52;11.98;;;;;;;9.39;100.00;100784.28;6218452;23;20008;-88
2023/04/09 01:55:44;;;;;;;18.25;11.80;;;;;;;9.35;100.00;100793.50;6218380;23;20016;-89
2023/04/09 01:58:10;;;;;;;17.05;11.27;;;;;;;9.34;100.00;100792.69;6192739;23;20060;-89
2023/04/09 02:00:45;;;;;;;18.20;11.63;;;;;;;9.40;100.00;100785.13;6193013;23;20039;-88
2023/04/09 02:03:25;;;;;;;18.35;11.43;;;;;;;9.54;100.00;100792.56;6192105;23;20023;-89
2023/04/09 02:06:26;;;;;;;19.83;11.85;;;;;;;9.57;100.00;100792.25;6218585;23;20012;-90
2023/04/09 02:08:52;;;;;;;17.67;11.40;;;;;;;9.49;100.00;100795.66;6133135;23;20025;-89
2023/04/09 02:11:20;;;;;;;16.55;11.25;;;;;;;9.30;100.00;100795.75;6155329;23;20588;-91
2023/04/09 02:13:48;;;;;;;17.42;12.15;;;;;;;9.31;100.00;100794.78;6131457;23;20024;-91
2023/04/09 02:16:15;;;;;;;21.63;11.93;;;;;;;9.31;100.00;100790.31;6156343;23;20012;-89
2023/04/09 02:18:41;;;;;;;19.63;11.43;;;;;;;9.35;100.00;100791.69;6162835;23;20021;-89
2023/04/09 02:21:06;;;;;;;18.15;10.70;;;;;;;9.46;100.00;100795.09;6219252;23;20012;-89
2023/04/09 02:23:34;;;;;;;15.20;10.70;;;;;;;9.45;100.00;100791.63;6219241;23;20008;-89
2023/04/09 02:26:00;;;;;;;24.05;10.30;;;;;;;9.26;100.00;100799.66;6218800;23;20008;-89
2023/04/09 02:28:25;;;;;;;15.98;11.88;;;;;;;9.33;100.00;100800.75;6200117;23;20008;-87
2023/04/09 02:30:51;;;;;;;23.08;12.07;;;;;;;9.24;100.00;100806.94;6238212;22;20013;-87
2023/04/09 02:33:19;;;;;;;14.27;11.00;;;;;;;9.26;100.00;100811.09;6219934;23;20008;-87
2023/04/09 02:35:45;;;;;;;15.50;11.05;;;;;;;9.32;100.00;100807.84;6167754;23;20016;-90
2023/04/09 02:38:12;;;;;;;19.95;11.20;;;;;;;9.27;100.00;100810.13;6217595;23;20017;-91
2023/04/09 02:40:41;;;;;;;19.75;11.40;;;;;;;9.32;100.00;100809.66;6217641;23;20087;-91
2023/04/09 02:43:07;;;;;;;16.10;11.00;;;;;;;9.28;100.00;100808.28;6217511;23;20004;-90
2023/04/09 02:45:33;;;;;;;16.48;11.70;;;;;;;9.21;100.00;100807.22;6191703;23;20001;-91
2023/04/09 02:47:58;;;;;;;24.27;11.40;;;;;;;9.38;100.00;100816.19;6166942;23;20459;-90
2023/04/09 02:50:24;;;;;;;16.15;10.45;;;;;;;9.51;100.00;100812.19;6191984;23;20052;-90
2023/04/09 02:52:51;;;;;;;13.55;10.50;;;;;;;9.74;100.00;100813.44;6191686;23;20016;-90
2023/04/09 02:55:18;;;;;;;14.90;11.27;;;;;;;9.88;100.00;100809.44;6218124;23;20020;-89
2023/04/09 02:57:44;;;;;;;13.15;9.90;;;;;;;9.80;100.00;100802.28;6218319;23;20005;-89
2023/04/09 03:00:11;;;;;;;13.13;10.13;;;;;;;9.86;100.00;100806.13;6220523;23;20478;-90
2023/04/09 03:02:37;;;;;;;13.60;10.50;;;;;;;9.76;100.00;100808.84;6192079;23;20013;-89
2023/04/09 03:05:03;;;;;;;19.50;12.18;;;;;;;9.58;100.00;100804.53;6191169;23;20016;-90
2023/04/09 03:07:29;;;;;;;18.40;11.55;;;;;;;9.60;100.00;100797.25;6193241;23;20004;-90
2023/04/09 03:09:55;;;;;;;17.90;11.43;;;;;;;9.64;100.00;100799.47;6219239;23;20028;-91
2023/04/09 03:12:21;;;;;;;19.90;11.00;;;;;;;9.56;100.00;100806.47;6191517;23;20096;-88
2023/04/09 03:14:46;;;;;;;17.80;10.90;;;;;;;9.70;100.00;100805.97;6192554;23;20079;-91
2023/04/09 03:17:12;;;;;;;21.23;10.82;;;;;;;9.70;100.00;100804.16;6217967;23;20383;-89
2023/04/09 03:19:40;;;;;;;16.80;10.45;;;;;;;9.84;100.00;100803.63;6166666;23;20017;-89
2023/04/09 03:22:05;;;;;;;17.85;11.10;;;;;;;9.78;100.00;100801.56;6190855;23;20018;-90
2023/04/09 03:24:32;;;;;;;14.75;10.88;;;;;;;9.81;100.00;100817.16;6165739;23;20012;-91
2023/04/09 03:27:01;;;;;;;15.65;11.18;;;;;;;9.72;100.00;100817.22;6190503;23;20020;-88
2023/04/09 03:29:27;;;;;;;21.52;13.15;;;;;;;9.56;100.00;100822.34;6191375;23;20008;-89
2023/04/09 03:31:53;;;;;;;21.20;13.60;;;;;;;9.54;100.00;100819.03;6166561;23;20040;-89
2023/04/09 03:34:18;;;;;;;18.25;13.63;;;;;;;9.58;100.00;100823.84;6191093;23;20019;-88
2023/04/09 03:36:48;;;;;;;23.85;14.38;;;;;;;9.19;100.00;100817.09;6191624;23;20009;-88
2023/04/09 03:39:20;;;;;;;26.23;14.00;;;;;;;9.22;100.00;100816.81;6167320;23;20021;-90
2023/04/09 03:41:46;;;;;;;22.98;15.15;;;;;;;9.12;100.00;100811.56;6191058;23;20036;-90
2023/04/09 03:44:14;;;;;;;21.30;15.55;;;;;;;9.05;100.00;100812.31;6219333;23;20011;-91
2023/04/09 03:47:18;;;;;;;24.13;15.90;;;;;;;9.06;100.00;100812.16;6210466;23;20347;-89
2023/04/09 03:49:43;;;;;;;22.42;15.65;;;;;;;8.87;100.00;100809.56;6189696;23;20012;-88
2023/04/09 03:52:17;;;;;;;27.80;15.63;;;;;;;8.99;100.00;100813.69;6189157;23;20009;-88
2023/04/09 03:54:49;;;;;;;16.38;11.15;;;;;;;9.01;100.00;100811.75;6189976;23;20048;-88
2023/04/09 03:57:19;;;;;;;24.67;16.05;;;;;;;9.18;100.00;100808.31;6189154;23;20367;-89
2023/04/09 03:59:47;;;;;;;23.45;16.70;;;;;;;8.97;100.00;100809.53;6216693;23;20076;-89
2023/04/09 04:02:16;;;;;;;20.70;16.13;;;;;;;8.94;100.00;100815.13;6165595;23;20012;-87
2023/04/09 04:04:46;;;;;;;19.00;14.68;;;;;;;9.08;100.00;100812.00;6190029;23;20510;-87
2023/04/09 04:07:12;;;;;;;21.75;16.13;;;;;;;8.82;100.00;100810.00;6216057;23;20044;-86
2023/04/09 04:09:57;;;;;;;23.48;15.45;;;;;;;8.52;100.00;100810.19;6213105;23;20371;-88
2023/04/09 04:12:26;;;;;;;23.70;15.45;;;;;;;8.50;100.00;100809.53;6190214;23;20091;-88
2023/04/09 04:15:20;;;;;;;22.00;15.15;;;;;;;8.46;100.00;100818.69;6179450;23;20021;-88
2023/04/09 04:17:51;;;;;;;17.25;13.23;;;;;;;8.47;100.00;100823.03;6166345;23;20008;-88
2023/04/09 04:20:41;;;;;;;19.20;13.73;;;;;;;8.24;100.00;100816.34;6191431;23;20009;-90
2023/04/09 04:23:10;;;;;;;21.17;13.05;;;;;;;8.54;100.00;100820.66;6192016;23;20013;-88
2023/04/09 04:25:43;;;;;;;19.90;13.27;;;;;;;8.43;100.00;100816.34;6192242;23;20047;-89
2023/04/09 04:28:13;;;;;;;18.52;12.30;;;;;;;8.49;100.00;100820.22;6192431;23;20017;-89
2023/04/09 04:30:41;;;;;;;16.30;12.43;;;;;;;8.26;100.00;100825.78;6219014;23;20012;-89
2023/04/09 04:33:07;;;;;;;24.92;14.00;;;;;;;8.29;100.00;100822.03;6191751;23;20452;-89
2023/04/09 04:35:41;;;;;;;18.20;13.27;;;;;;;8.32;100.00;100829.69;6191942;23;20379;-88
2023/04/09 04:38:14;;;;;;;22.67;15.25;;;;;;;8.23;100.00;100828.69;6193135;23;20411;-87
2023/04/09 04:40:40;;;;;;;21.35;14.48;;;;;;;8.17;100.00;100831.91;6191396;23;20016;-88
2023/04/09 04:43:06;;;;;;;19.33;12.85;;;;;;;8.39;100.00;100836.06;6191203;23;20052;-89
2023/04/09 04:45:32;;;;;;;20.17;13.70;;;;;;;8.43;100.00;100832.19;6190999;23;20064;-87
2023/04/09 04:48:03;;;;;;;17.05;13.30;;;;;;;8.57;100.00;100826.47;6191243;23;20084;-89
2023/04/09 04:50:29;;;;;;;21.52;13.65;;;;;;;8.48;100.00;100829.97;6191380;23;20064;-89
2023/04/09 04:52:59;;;;;;;19.85;13.27;;;;;;;8.32;100.00;100830.53;6191528;23;20165;-89
2023/04/09 04:55:29;;;;;;;19.73;14.20;;;;;;;8.20;100.00;100836.06;6193370;23;20008;-89
2023/04/09 04:57:55;;;;;;;21.50;15.45;;;;;;;7.91;100.00;100829.94;6167752;23;20441;-90
2023/04/09 05:00:24;;;;;;;23.13;15.48;;;;;;;7.99;100.00;100827.44;6168735;23;20095;-90
2023/04/09 05:02:50;;;;;;;21.40;15.02;;;;;;;8.08;100.00;100832.75;6193595;23;20019;-88
2023/04/09 05:05:27;;;;;;;21.85;15.23;;;;;;;8.17;100.00;100838.97;6221589;23;20110;-91
2023/04/09 05:07:55;;;;;;;23.50;15.93;;;;;;;8.08;100.00;100837.19;6194749;23;20013;-91
2023/04/09 05:10:22;;;;;;;22.65;16.63;;;;;;;8.11;100.00;100840.38;6193070;23;20005;-90
2023/04/09 05:12:48;;;;;;;24.55;16.48;;;;;;;8.32;100.00;100842.88;6192555;23;20016;-89
2023/04/09 05:15:21;;;;;;;22.92;16.27;;;;;;;8.46;100.00;100846.91;6218328;23;20016;-90
2023/04/09 05:17:47;;;;;;;23.02;16.45;;;;;;;8.46;100.00;100853.03;6194067;23;20079;-90
2023/04/09 05:20:13;;;;;;;23.92;17.33;;;;;;;8.49;100.00;100847.47;6194053;23;20072;-89
2023/04/09 05:22:48;;;;;;;26.13;17.08;;;;;;;8.94;100.00;100852.13;6192426;23;20017;-89
2023/04/09 05:25:15;;;;;;;23.13;16.55;;;;;;;8.87;100.00;100845.75;6193152;23;20479;-88
2023/04/09 05:27:41;;;;;;;23.67;17.10;;;;;;;9.12;100.00;100856.50;6193330;23;20016;-88
2023/04/09 05:30:09;;;;;;;35.65;17.00;;;;;;;9.05;100.00;100850.13;6191844;23;20044;-89
2023/04/09 05:32:35;;;;;;;25.27;16.63;;;;;;;9.37;100.00;100860.31;6166639;23;20327;-88
2023/04/09 05:35:04;;;;;;;28.02;17.00;;;;;;;9.70;100.00;100862.38;6194255;23;20013;-89
2023/04/09 05:37:35;;;;;;;20.30;15.32;;;;;;;9.41;100.00;100861.69;6217974;23;20009;-90
2023/04/09 05:40:00;;;;;;;23.45;15.90;;;;;;;10.22;100.00;100862.59;6192283;23;20466;-89
2023/04/09 05:42:26;;;;;;;25.08;15.60;;;;;;;10.96;100.00;100867.50;6218998;23;20095;-91
2023/04/09 05:45:00;;;;;;;20.40;14.30;;;;;;;11.20;100.00;100876.41;6190696;23;20020;-89
2023/04/09 05:47:27;;;;;;;19.85;13.68;;;;;;;11.46;100.00;100886.19;6190661;23;20435;-89
2023/04/09 05:50:02;;;;;;;21.45;13.70;;;;;;;11.65;100.00;100886.78;6191305;23;20031;-91
2023/04/09 05:52:28;;;;;;;19.00;15.20;;;;;;;11.18;100.00;100888.19;6222014;23;20012;-88
2023/04/09 05:54:54;;;;;;;19.58;14.40;;;;;;;11.08;100.00;100882.16;6225781;23;20036;-91
2023/04/09 05:57:26;;;;;;;23.00;15.70;;;;;;;11.23;100.00;100885.91;6193944;23;20009;-90
2023/04/09 05:59:57;;;;;;;22.08;15.77;;;;;;;10.84;100.00;100875.72;6193043;23;20099;-88
2023/04/09 06:02:24;;;;;;;23.60;15.80;;;;;;;12.12;100.00;100878.31;6217723;23;20427;-90
2023/04/09 06:04:49;;;;;;;19.45;15.00;;;;;;;12.66;100.00;100893.63;6217595;23;20095;-88
2023/04/09 06:07:15;;;;;;;21.77;15.07;;;;;;;13.28;100.00;100904.56;6190669;23;20032;-89
2023/04/09 06:09:43;;;;;;;25.02;14.73;;;;;;;12.61;100.00;100909.25;6190885;23;20016;-89
2023/04/09 06:12:09;;;;;;;23.15;15.63;;;;;;;12.06;100.00;100903.72;6193727;23;20012;-89
2023/04/09 06:15:00;;;;;;;27.08;13.80;;;;;;;13.19;100.00;100913.59;6215394;23;20004;-84
2023/04/09 06:17:39;;;;;;;22.00;14.20;;;;;;;13.56;100.00;100921.78;6209408;22;20017;-81
2023/04/09 06:20:28;;;;;;;15.88;12.50;;;;;;;13.53;100.00;100919.47;6206651;23;20029;-81
2023/04/09 06:22:57;;;;;;;23.10;13.45;;;;;;;12.84;100.00;100912.91;6210704;23;20025;-80
2023/04/09 06:35:29;;;;;;;16.70;11.60;;;;;;;12.66;100.00;100920.22;6200122;23;20009;-85
2023/04/09 06:38:26;;;;;;;17.10;12.70;;;;;;;13.01;100.00;100918.22;6193360;22;20027;-82
2023/04/09 06:41:48;;;;;;;16.53;11.43;;;;;;;13.53;100.00;100924.78;6238916;22;20023;-81
2023/04/09 06:44:35;;;;;;;20.92;12.38;;;;;;;13.84;100.00;100922.19;6209542;23;20012;-80
2023/04/09 06:47:14;;;;;;;18.75;11.95;;;;;;;14.57;100.00;100922.63;6238714;22;19993;-81
2023/04/09 06:50:06;;;;;;;17.73;12.20;;;;;;;13.69;100.00;100923.91;6214009;23;20017;-83
2023/04/09 07:02:37;;;;;;;16.83;10.73;;;;;;;13.59;100.00;100925.97;6180383;23;20005;-81
2023/04/09 07:05:18;;;;;;;14.07;7.67;;;;;;;14.70;100.00;100946.03;6172242;23;20008;-83
2023/04/09 07:18:28;;;;;;;18.10;11.73;;;;;;;14.88;100.00;100954.56;6211908;23;20067;-81
2023/04/09 07:26:57;;;;;;;14.70;11.02;;;;;;;16.07;100.00;100952.66;6182996;23;20427;-80
2023/04/09 07:32:34;;;;;;;14.98;9.73;;;;;;;15.24;100.00;100955.59;6210889;23;20044;-87
2023/04/09 07:35:48;;;;;;;15.30;11.40;;;;;;;15.47;100.00;100958.19;6191443;23;20009;-84
2023/04/09 07:38:17;;;;;;;13.60;10.02;;;;;;;15.12;100.00;100951.66;6184977;23;20020;-81
2023/04/09 07:47:40;;;;;;;15.48;11.73;;;;;;;16.85;100.00;100978.63;6202637;23;20017;-85
2023/04/09 07:55:36;;;;;;;15.00;11.48;;;;;;;16.77;100.00;100982.25;6235142;22;20250;-84
2023/04/09 08:14:56;;;;;;;15.30;11.07;;;;;;;17.87;95.83;100995.91;6196065;22;20015;-84
2023/04/09 08:17:28;;;;;;;17.70;11.27;;;;;;;18.04;90.81;101002.63;6242989;23;20001;-87
2023/04/09 08:20:35;;;;;;;17.13;11.63;;;;;;;17.05;98.76;101004.56;6150851;23;20039;-86
2023/04/09 08:23:07;;;;;;;18.10;11.93;;;;;;;17.69;93.07;100990.25;6240021;22;20000;-84
2023/04/09 08:25:58;;;;;;;15.60;11.90;;;;;;;17.56;93.38;100989.13;6214032;23;20016;-84
2023/04/09 08:28:36;;;;;;;19.05;12.20;;;;;;;17.29;96.37;100991.78;6238763;23;20015;-81
2023/04/09 08:31:03;;;;;;;23.58;13.45;;;;;;;17.40;95.95;100996.63;6191800;23;20076;-82
2023/04/09 08:33:40;;;;;;;17.88;11.95;;;;;;;17.78;92.07;100997.94;6207554;23;20077;-80
2023/04/09 08:36:36;;;;;;;17.23;11.68;;;;;;;18.35;83.07;100999.44;6209412;23;20259;-80
2023/04/09 08:39:24;;;;;;;15.45;10.90;;;;;;;18.72;78.74;101000.84;6224208;22;20027;-84
2023/04/09 08:42:36;;;;;;;18.58;10.65;;;;;;;18.16;79.95;101000.22;6267391;23;20012;-83
2023/04/09 08:45:21;;;;;;;14.15;10.35;;;;;;;18.95;77.80;101002.13;6215967;23;20076;-84
2023/04/09 08:47:58;;;;;;;15.48;10.90;;;;;;;18.72;76.81;101007.03;6264877;23;19996;-83
2023/04/09 08:50:49;;;;;;;13.43;10.18;;;;;;;18.42;78.70;101001.13;6267431;23;20150;-80
2023/04/09 08:53:22;;;;;;;16.30;10.60;;;;;;;18.03;80.65;100996.41;6268704;23;20019;-79
2023/04/09 08:55:48;;;;;;;17.17;10.65;;;;;;;18.03;81.02;101001.78;6216720;23;20020;-83
2023/04/09 08:58:17;;;;;;;16.17;10.73;;;;;;;17.48;80.65;100991.94;6241393;23;19980;-79
2023/04/09 09:00:46;;;;;;;13.40;10.35;;;;;;;18.06;78.56;100992.53;6262877;23;20012;-82
2023/04/09 09:03:35;;;;;;;13.93;9.90;;;;;;;17.57;80.24;100995.31;6239697;23;20008;-84
2023/04/09 09:06:43;;;;;;;17.25;9.80;;;;;;;18.12;79.57;101015.88;6244594;23;20011;-86
2023/04/09 09:09:23;;;;;;;17.77;10.10;;;;;;;18.23;78.36;101011.81;6240074;23;20004;-81
2023/04/09 09:11:55;;;;;;;14.40;7.97;;;;;;;18.29;73.27;101027.09;6271150;23;19996;-84
2023/04/09 09:14:53;;;;;;;11.80;8.15;;;;;;;17.99;72.44;101013.97;6266361;23;20045;-83
2023/04/09 09:17:20;;;;;;;16.08;8.57;;;;;;;17.88;75.48;101009.13;6237999;23;20075;-84
2023/04/09 09:20:00;;;;;;;10.95;8.82;;;;;;;17.51;77.48;100996.91;6221005;23;20000;-84
2023/04/09 09:28:18;;;;;;;13.38;9.50;;;;;;;17.85;75.21;101004.19;6192010;22;20040;-87
2023/04/09 09:31:10;;;;;;;16.02;10.20;;;;;;;17.85;75.39;101009.53;6209579;23;20321;-80
2023/04/09 09:33:42;;;;;;;15.80;10.85;;;;;;;18.11;74.23;101003.47;6189334;23;20009;-87
2023/04/09 09:36:34;;;;;;;16.85;11.15;;;;;;;18.48;72.56;101008.38;6214632;23;20009;-86
2023/04/09 09:39:08;;;;;;;14.70;9.20;;;;;;;18.96;70.36;100998.38;6209836;23;20016;-77
2023/04/09 09:41:46;;;;;;;19.70;9.60;;;;;;;19.02;68.31;101007.50;6228206;23;20009;-83
2023/04/09 09:47:19;;;;;;;13.38;10.40;;;;;;;18.40;69.92;100999.66;6206910;23;20024;-79
2023/04/09 09:49:51;;;;;;;17.15;10.32;;;;;;;18.78;69.07;101006.22;6231585;23;20017;-84
2023/04/09 09:52:45;;;;;;;13.43;8.80;;;;;;;19.13;63.50;101008.72;6201316;23;20079;-80
2023/04/09 09:55:59;;;;;;;17.92;9.50;;;;;;;19.99;61.75;101005.75;6231409;23;20076;-78
2023/04/09 09:58:35;;;;;;;16.83;9.82;;;;;;;19.95;61.21;101009.91;6234430;23;20012;-81
2023/04/09 10:01:05;;;;;;;14.80;9.30;;;;;;;19.16;64.81;100997.59;6232996;23;20011;-79
2023/04/09 10:04:19;;;;;;;14.13;8.93;;;;;;;19.88;61.74;101009.13;6207764;22;20621;-84
2023/04/09 10:15:03;;;;;;;10.38;6.03;;;;;;;19.10;57.92;100993.84;6235039;22;20035;-84
2023/04/09 10:17:33;;;;;;;14.15;8.02;;;;;;;18.94;58.31;100997.78;6240421;22;20006;-83
2023/04/09 10:31:34;;;;;;;15.02;8.32;;;;;;;19.54;58.92;100979.81;6234066;22;20024;-82
2023/04/09 10:34:25;;;;;;;14.75;10.10;;;;;;;19.90;58.17;100995.44;6215272;23;20007;-80
2023/04/09 10:37:00;;;;;;;17.42;8.90;;;;;;;19.66;57.32;100972.75;6238882;23;20012;-83
2023/04/09 10:39:31;;;;;;;12.43;8.07;;;;;;;19.37;58.10;100973.16;6208849;23;20003;-83
2023/04/09 10:42:18;;;;;;;15.25;8.80;;;;;;;19.48;59.38;100969.88;6240011;23;20012;-83
2023/04/09 10:45:32;;;;;;;17.25;8.50;;;;;;;19.48;59.11;100959.13;6238673;22;20024;-86
2023/04/09 10:48:35;;;;;;;14.07;7.88;;;;;;;19.21;59.78;100962.84;6162525;22;20067;-82
2023/04/09 10:54:42;;;;;;;12.73;7.47;;;;;;;20.37;54.97;100960.09;6244158;22;20044;-83
2023/04/09 11:07:28;;;;;;;;;;;;;;;20.62;47.38;100958.28;6232162;22;20001;-86
2023/04/09 11:10:27;;;;;;;13.18;7.38;;;;;;;21.14;47.15;100957.06;6215808;22;19942;-85
2023/04/09 11:18:54;;;;;;;15.05;8.60;;;;;;;19.44;52.49;100941.75;6238627;22;20076;-83
2023/04/09 11:24:18;;;;;;;10.75;6.20;;;;;;;18.34;54.09;100944.13;6237947;22;20413;-83
2023/04/09 11:26:44;;;;;;;15.95;6.13;;;;;;;19.34;52.38;100941.34;6179256;23;20096;-82
2023/04/09 11:29:11;;;;;;;10.00;6.10;;;;;;;20.28;48.35;100949.78;6232181;23;20004;-82
2023/04/09 11:34:31;;;;;;;10.77;6.10;;;;;;;20.52;48.99;100932.84;6220264;22;20016;-83
2023/04/09 11:37:29;;;;;;;10.38;5.35;;;;;;;20.73;47.21;100940.59;6209310;23;20008;-85
2023/04/09 11:42:43;;;;;;;7.28;4.80;;;;;;;21.08;47.14;100927.44;6244206;22;20004;-81
2023/04/09 11:45:34;;;;;;;7.40;4.75;;;;;;;20.24;47.05;100932.38;6232374;23;20016;-83
2023/04/09 11:48:10;;;;;;;10.02;4.82;;;;;;;20.63;45.89;100945.63;6197089;23;20061;-81
2023/04/09 11:51:08;;;;;;;5.85;4.28;;;;;;;20.56;44.23;100926.84;6197038;23;20063;-82
2023/04/09 11:53:36;;;;;;;7.10;5.03;;;;;;;19.61;46.75;100932.22;6204953;23;20024;-78
2023/04/09 11:56:01;;;;;;;7.35;4.65;;;;;;;18.95;51.00;100931.44;6226910;23;20395;-82
2023/04/09 11:58:27;;;;;;;8.38;5.40;;;;;;;18.04;55.96;100944.44;6224336;23;20044;-82
2023/04/09 12:01:03;;;;;;;8.43;5.30;;;;;;;17.60;57.30;100919.88;6228458;23;20436;-84
2023/04/09 12:03:55;;;;;;;8.75;5.45;;;;;;;17.46;59.87;100915.44;6231484;22;20016;-83
2023/04/09 12:09:31;;;;;;;9.57;5.72;;;;;;;17.07;58.03;100913.31;6231493;23;20032;-83
2023/04/09 12:12:18;;;;;;;7.93;5.72;;;;;;;17.03;59.31;100910.19;6180800;23;20099;-86
2023/04/09 12:14:57;;;;;;;8.07;5.30;;;;;;;16.99;60.68;100903.59;6238694;23;20020;-83
2023/04/09 12:18:04;;;;;;;9.68;5.00;;;;;;;17.35;56.76;100922.19;6220029;23;20052;-81
2023/04/09 12:21:10;;;;;;;8.68;4.95;;;;;;;17.20;58.27;100934.03;6232093;23;20001;-84
2023/04/09 12:26:47;;;;;;;8.57;4.57;;;;;;;16.88;58.77;100909.47;6176110;23;20064;-84
2023/04/09 12:34:25;;;;;;;8.75;4.75;;;;;;;17.26;58.11;100911.81;6145346;23;20009;-85
2023/04/09 12:43:18;;;;;;;8.57;4.93;;;;;;;16.83;57.82;100906.56;6241584;22;20021;-84
2023/04/09 12:46:13;;;;;;;9.95;4.70;;;;;;;16.21;60.16;100889.44;6239749;22;20005;-86
2023/04/09 12:49:08;;;;;;;6.50;5.40;;;;;;;16.24;62.17;100907.81;6214397;23;20054;-84
2023/04/09 12:52:17;;;;;;;5.28;4.47;;;;;;;15.92;63.54;100907.22;6179825;23;20017;-84
2023/04/09 12:55:22;;;;;;;7.90;4.68;;;;;;;15.61;64.20;100885.22;6189824;23;20020;-83
2023/04/09 12:58:22;;;;;;;8.02;5.00;;;;;;;15.92;62.56;100885.84;6179754;23;20094;-85
2023/04/09 13:04:57;;;;;;;5.85;4.47;;;;;;;16.23;61.24;100877.56;6174105;23;20060;-81
2023/04/09 13:07:25;;;;;;;9.30;4.28;;;;;;;16.52;59.47;100873.91;6210078;23;20028;-80
2023/04/09 13:09:56;;;;;;;7.47;3.70;;;;;;;16.74;56.95;100877.41;6239192;23;20012;-79
2023/04/09 13:12:23;;;;;;;6.40;3.83;;;;;;;16.60;56.99;100873.81;6160655;23;20452;-81
2023/04/09 13:14:53;;;;;;;8.18;4.07;;;;;;;16.70;57.76;100868.97;6235986;23;20001;-81
2023/04/09 13:17:26;;;;;;;5.97;4.30;;;;;;;16.79;56.90;100873.16;6184070;23;20016;-80
2023/04/09 13:20:01;;;;;;;8.93;4.22;;;;;;;16.70;55.70;100863.63;6208830;23;20009;-80
2023/04/09 13:22:47;;;;;;;8.95;4.47;;;;;;;16.40;57.50;100856.72;6211012;23;20039;-81
2023/04/09 13:25:29;;;;;;;5.22;4.20;;;;;;;16.20;58.79;100874.44;6231630;23;20008;-82
2023/04/09 13:27:57;;;;;;;5.65;4.43;;;;;;;16.03;59.51;100861.31;6239192;23;20016;-81
2023/04/09 13:30:28;;;;;;;9.40;4.28;;;;;;;15.97;59.08;100859.34;6212265;23;20401;-81
2023/04/09 13:33:06;;;;;;;6.20;3.78;;;;;;;16.08;57.67;100858.03;6202180;23;20064;-83
2023/04/09 13:36:12;;;;;;;7.30;3.70;;;;;;;16.26;58.49;100849.59;6239419;23;20016;-82
2023/04/09 13:39:35;;;;;;;6.93;3.78;;;;;;;16.37;57.20;100852.56;6210562;23;20005;-83
2023/04/09 13:42:14;;;;;;;5.47;3.92;;;;;;;16.36;57.57;100839.41;6236541;23;20018;-85
2023/04/09 13:44:51;;;;;;;5.00;3.40;;;;;;;16.43;56.65;100846.47;6190842;23;20017;-78
2023/04/09 13:50:54;;;;;;;7.80;4.47;;;;;;;16.60;54.01;100827.50;6225979;22;20028;-82
2023/04/09 13:53:37;;;;;;;5.47;3.50;;;;;;;16.45;54.95;100830.22;6233306;22;20000;-80
2023/04/09 13:56:14;;;;;;;8.38;3.80;;;;;;;16.46;53.52;100829.22;6194574;22;20004;-82
2023/04/09 13:59:07;;;;;;;7.07;3.70;;;;;;;16.42;54.43;100825.25;6211920;23;20020;-82
2023/04/09 14:01:47;;;;;;;6.18;3.50;;;;;;;16.34;54.04;100814.72;6194563;23;20083;-82
2023/04/09 14:04:15;;;;;;;7.13;3.53;;;;;;;16.28;54.44;100807.41;6220487;23;20420;-84
2023/04/09 14:06:44;;;;;;;8.15;3.33;;;;;;;16.26;53.14;100807.63;6194442;23;20019;-80
2023/04/09 14:09:11;;;;;;;4.45;3.10;;;;;;;16.13;52.61;100806.69;6217206;23;20218;-80
2023/04/09 14:11:39;;;;;;;6.20;3.40;;;;;;;16.20;52.75;100811.06;6209705;23;20013;-80
2023/04/09 14:14:11;;;;;;;5.82;3.08;;;;;;;16.34;52.72;100806.69;6216171;23;20055;-84
2023/04/09 14:16:43;;;;;;;4.32;3.30;;;;;;;16.37;52.08;100799.06;6221259;23;20016;-85